| time (UTC) | temp F | wind direction | speed MPH | gust MPH | rain 1hr in | rain 24hr in | rain mn in | humidity % | barometer mb |
| 20260509224205 | 63 | 215 | 5.0 | 6.0 | 0.00 | 0.35 | 0.35 | 60 | 1004.6 |
| 20260509223702 | 64 | 204 | 4.0 | 11.0 | 0.00 | 0.35 | 0.35 | 63 | 1004.6 |
| 20260509223154 | 64 | 188 | 3.0 | 9.0 | 0.00 | 0.35 | 0.35 | 61 | 1004.5 |
| 20260509222650 | 64 | 198 | 6.0 | 9.0 | 0.00 | 0.35 | 0.35 | 60 | 1004.7 |
| 20260509222145 | 64 | 213 | 3.0 | 6.0 | 0.00 | 0.35 | 0.35 | 61 | 1004.6 |
| 20260509221641 | 64 | 50 | 3.0 | 9.0 | 0.00 | 0.35 | 0.35 | 61 | 1004.7 |
| 20260509221137 | 66 | 268 | 3.0 | 8.0 | 0.00 | 0.35 | 0.35 | 59 | 1004.6 |
| 20260509220633 | 66 | 177 | 3.0 | 5.0 | 0.00 | 0.35 | 0.35 | 58 | 1004.5 |
| 20260509220130 | 66 | 207 | 5.0 | 6.0 | 0.00 | 0.35 | 0.35 | 57 | 1004.7 |
| 20260509215626 | 66 | 170 | 2.0 | 6.0 | 0.00 | 0.35 | 0.35 | 59 | 1004.6 |
| 20260509215118 | 66 | 170 | 4.0 | 6.0 | 0.00 | 0.35 | 0.35 | 56 | 1004.6 |
| 20260509214614 | 66 | 235 | 3.0 | 6.0 | 0.00 | 0.35 | 0.35 | 58 | 1004.4 |
| 20260509214111 | 67 | 132 | 3.0 | 9.0 | 0.00 | 0.35 | 0.35 | 59 | 1004.6 |
| 20260509213607 | 67 | 215 | 3.0 | 5.0 | 0.00 | 0.35 | 0.35 | 59 | 1004.4 |
| 20260509213103 | 67 | 339 | 2.0 | 5.0 | 0.00 | 0.35 | 0.35 | 59 | 1004.5 |
| 20260509212601 | 67 | 233 | 3.0 | 6.0 | 0.00 | 0.35 | 0.35 | 60 | 1004.7 |
| 20260509212058 | 66 | 130 | 5.0 | 8.0 | 0.00 | 0.35 | 0.35 | 57 | 1004.7 |
| 20260509211553 | 66 | 225 | 5.0 | 6.0 | 0.00 | 0.35 | 0.35 | 57 | 1004.6 |
| 20260509211050 | 64 | 204 | 2.0 | 3.0 | 0.00 | 0.35 | 0.35 | 62 | 1005.1 |
| 20260509210547 | 64 | 184 | 2.0 | 8.0 | 0.00 | 0.35 | 0.35 | 61 | 1005.0 |
| 20260509210043 | 65 | 203 | 4.0 | 8.0 | 0.00 | 0.35 | 0.35 | 60 | 1005.0 |
| 20260509205537 | 66 | 255 | 1.0 | 5.0 | 0.00 | 0.35 | 0.35 | 60 | 1005.0 |
| 20260509205033 | 67 | 229 | 6.0 | 8.0 | 0.00 | 0.35 | 0.35 | 58 | 1005.0 |
| 20260509204530 | 66 | 178 | 0.0 | 5.0 | 0.00 | 0.35 | 0.35 | 63 | 1005.1 |
| 20260509204026 | 66 | 251 | 9.0 | 11.0 | 0.00 | 0.35 | 0.35 | 59 | 1005.3 |
| 20260509203522 | 64 | 215 | 4.0 | 6.0 | 0.00 | 0.35 | 0.35 | 63 | 1005.2 |
| 20260509203020 | 65 | 57 | 5.0 | 8.0 | 0.00 | 0.35 | 0.35 | 61 | 1005.3 |
| 20260509202515 | 66 | 141 | 1.0 | 3.0 | 0.00 | 0.35 | 0.35 | 62 | 1005.5 |
| 20260509202011 | 66 | 205 | 4.0 | 6.0 | 0.00 | 0.35 | 0.35 | 62 | 1005.6 |
| 20260509201506 | 67 | 195 | 3.0 | 6.0 | 0.00 | 0.35 | 0.35 | 59 | 1005.6 |
| 20260509201004 | 67 | 192 | 2.0 | 5.0 | 0.00 | 0.35 | 0.35 | 60 | 1005.5 |
| 20260509200503 | 67 | 220 | 2.0 | 5.0 | 0.00 | 0.35 | 0.35 | 62 | 1005.6 |
| 20260509200000 | 65 | 203 | 2.0 | 6.0 | 0.00 | 0.35 | 0.35 | 60 | 1005.5 |
| 20260509195455 | 64 | 278 | 5.0 | 6.0 | 0.00 | 0.35 | 0.35 | 65 | 1005.8 |
| 20260509194950 | 66 | 147 | 6.0 | 6.0 | 0.00 | 0.35 | 0.35 | 59 | 1006.0 |
| 20260509194445 | 66 | 182 | 0.0 | 2.0 | 0.00 | 0.35 | 0.35 | 62 | 1006.0 |
| 20260509193942 | 64 | 27 | 2.0 | 5.0 | 0.00 | 0.35 | 0.35 | 62 | 1006.0 |
| 20260509193437 | 65 | 209 | 4.0 | 9.0 | 0.00 | 0.35 | 0.35 | 61 | 1006.0 |
| 20260509192933 | 66 | 113 | 8.0 | 13.0 | 0.00 | 0.35 | 0.35 | 59 | 1006.1 |
| 20260509192430 | 66 | 198 | 1.0 | 3.0 | 0.00 | 0.35 | 0.35 | 67 | 1005.9 |
| 20260509191925 | 66 | 124 | 3.0 | 3.0 | 0.00 | 0.35 | 0.35 | 64 | 1005.7 |
| 20260509191420 | 66 | 196 | 3.0 | 6.0 | 0.00 | 0.35 | 0.35 | 66 | 1005.9 |
| 20260509190917 | 64 | 295 | 3.0 | 5.0 | 0.00 | 0.35 | 0.35 | 68 | 1006.1 |
| 20260509190414 | 64 | 184 | 1.0 | 6.0 | 0.00 | 0.35 | 0.35 | 69 | 1006.3 |
| 20260509185911 | 64 | 215 | 4.0 | 8.0 | 0.00 | 0.35 | 0.35 | 66 | 1006.2 |
| 20260509185403 | 65 | 256 | 7.0 | 9.0 | 0.00 | 0.35 | 0.35 | 65 | 1006.4 |
| 20260509184859 | 64 | 186 | 1.0 | 8.0 | 0.00 | 0.35 | 0.35 | 67 | 1006.3 |
| 20260509184356 | 65 | 156 | 2.0 | 6.0 | 0.00 | 0.35 | 0.35 | 67 | 1006.4 |
| 20260509183854 | 64 | 189 | 3.0 | 8.0 | 0.00 | 0.35 | 0.35 | 69 | 1006.2 |
| 20260509183348 | 63 | 222 | 4.0 | 5.0 | 0.00 | 0.35 | 0.35 | 69 | 1006.3 |
| 20260509182844 | 62 | 174 | 3.0 | 5.0 | 0.00 | 0.35 | 0.35 | 70 | 1006.5 |
| 20260509182342 | 62 | 145 | 4.0 | 6.0 | 0.00 | 0.35 | 0.35 | 72 | 1006.4 |
| 20260509181839 | 63 | 268 | 3.0 | 5.0 | 0.00 | 0.35 | 0.35 | 72 | 1006.3 |
| 20260509181336 | 61 | 183 | 1.0 | 6.0 | 0.00 | 0.35 | 0.35 | 75 | 1006.4 |
| 20260509180833 | 59 | 318 | 2.0 | 9.0 | 0.00 | 0.35 | 0.35 | 78 | 1006.5 |
| 20260509180329 | 60 | 189 | 4.0 | 8.0 | 0.00 | 0.35 | 0.35 | 77 | 1006.4 |
| 20260509175826 | 60 | 179 | 3.0 | 6.0 | 0.00 | 0.35 | 0.35 | 80 | 1006.8 |
| 20260509175322 | 60 | 283 | 7.0 | 8.0 | 0.00 | 0.35 | 0.35 | 75 | 1006.5 |
| 20260509174818 | 60 | 251 | 4.0 | 6.0 | 0.00 | 0.35 | 0.35 | 78 | 1006.6 |
| 20260509174314 | 60 | 132 | 4.0 | 6.0 | 0.00 | 0.35 | 0.35 | 82 | 1006.8 |
| 20260509173810 | 59 | 212 | 4.0 | 5.0 | 0.00 | 0.35 | 0.35 | 82 | 1006.8 |
| 20260509173306 | 59 | 149 | 2.0 | 3.0 | 0.00 | 0.35 | 0.35 | 82 | 1006.8 |
| 20260509172801 | 58 | 107 | 5.0 | 8.0 | 0.00 | 0.35 | 0.35 | 81 | 1006.9 |
| 20260509172259 | 58 | 220 | 2.0 | 6.0 | 0.00 | 0.35 | 0.35 | 83 | 1007.0 |
| 20260509171754 | 59 | 178 | 1.0 | 3.0 | 0.00 | 0.35 | 0.35 | 83 | 1007.0 |
| 20260509171250 | 58 | 192 | 2.0 | 5.0 | 0.00 | 0.35 | 0.35 | 87 | 1007.3 |
| 20260509170747 | 58 | 211 | 0.0 | 5.0 | 0.00 | 0.35 | 0.35 | 86 | 1007.1 |
| 20260509170243 | 57 | 187 | 0.0 | 5.0 | 0.00 | 0.35 | 0.35 | 86 | 1007.3 |
| 20260509165742 | 57 | 209 | 5.0 | 6.0 | 0.00 | 0.35 | 0.35 | 87 | 1007.2 |
| 20260509165237 | 56 | 254 | 2.0 | 3.0 | 0.00 | 0.35 | 0.35 | 89 | 1007.1 |
| 20260509164733 | 55 | 220 | 3.0 | 5.0 | 0.00 | 0.35 | 0.35 | 89 | 1007.2 |
| 20260509164229 | 56 | 203 | 3.0 | 9.0 | 0.00 | 0.35 | 0.35 | 87 | 1007.2 |
| 20260509163726 | 56 | 171 | 2.0 | 5.0 | 0.00 | 0.35 | 0.35 | 90 | 1007.3 |
| 20260509163223 | 55 | 181 | 1.0 | 3.0 | 0.00 | 0.35 | 0.35 | 91 | 1007.1 |
| 20260509162720 | 54 | 192 | 1.0 | 2.0 | 0.00 | 0.35 | 0.35 | 91 | 1007.3 |
| 20260509162215 | 54 | 216 | 2.0 | 3.0 | 0.00 | 0.35 | 0.35 | 92 | 1007.2 |
| 20260509161711 | 54 | 180 | 2.0 | 3.0 | 0.00 | 0.35 | 0.35 | 93 | 1007.2 |
| 20260509161208 | 53 | 195 | 1.0 | 3.0 | 0.00 | 0.35 | 0.35 | 94 | 1007.2 |
| 20260509160703 | 53 | 161 | 2.0 | 5.0 | 0.00 | 0.35 | 0.35 | 94 | 1007.1 |
| 20260509160159 | 53 | 206 | 2.0 | 3.0 | 0.00 | 0.35 | 0.35 | 95 | 1007.2 |
| 20260509155655 | 52 | 204 | 2.0 | 5.0 | 0.00 | 0.35 | 0.35 | 96 | 1006.9 |
| 20260509155151 | 52 | 213 | 2.0 | 3.0 | 0.00 | 0.35 | 0.35 | 96 | 1007.0 |
| 20260509154647 | 52 | 184 | 2.0 | 3.0 | 0.00 | 0.35 | 0.35 | 96 | 1007.0 |
| 20260509154145 | 52 | 210 | 1.0 | 3.0 | 0.00 | 0.35 | 0.35 | 97 | 1007.2 |
| 20260509153641 | 52 | 193 | 2.0 | 2.0 | 0.00 | 0.35 | 0.35 | 97 | 1007.2 |
| 20260509153138 | 52 | 215 | 1.0 | 3.0 | 0.00 | 0.35 | 0.35 | 97 | 1007.3 |
| 20260509152634 | 51 | 191 | 1.0 | 3.0 | 0.00 | 0.35 | 0.35 | 97 | 1007.1 |
| 20260509152131 | 52 | 197 | 2.0 | 3.0 | 0.00 | 0.35 | 0.35 | 97 | 1007.2 |
| 20260509151627 | 51 | 196 | 2.0 | 6.0 | 0.00 | 0.35 | 0.35 | 97 | 1006.9 |
| 20260509151125 | 51 | 198 | 2.0 | 3.0 | 0.00 | 0.35 | 0.35 | 98 | 1006.9 |
| 20260509150623 | 51 | 191 | 2.0 | 6.0 | 0.00 | 0.35 | 0.35 | 98 | 1007.2 |
| 20260509150121 | 51 | 174 | 2.0 | 2.0 | 0.00 | 0.35 | 0.35 | 98 | 1007.0 |
| 20260509145616 | 51 | 156 | 2.0 | 3.0 | 0.00 | 0.35 | 0.35 | 99 | 1007.1 |
| 20260509145112 | 51 | 189 | 1.0 | 3.0 | 0.00 | 0.35 | 0.35 | 99 | 1007.0 |
| 20260509144609 | 51 | 180 | 0.0 | 0.0 | 0.00 | 0.35 | 0.35 | 99 | 1007.2 |
| 20260509144106 | 50 | 175 | 0.0 | 0.0 | 0.00 | 0.35 | 0.35 | 99 | 1007.1 |
| 20260509143603 | 50 | 185 | 1.0 | 2.0 | 0.00 | 0.35 | 0.35 | 99 | 1007.0 |
| 20260509143101 | 50 | 213 | 0.0 | 2.0 | 0.00 | 0.35 | 0.35 | 99 | 1007.0 |
| 20260509142556 | 50 | 187 | 0.0 | 2.0 | 0.00 | 0.35 | 0.35 | 99 | 1007.0 |
| 20260509142053 | 50 | 180 | 0.0 | 3.0 | 0.00 | 0.35 | 0.35 | 99 | 1007.1 |
| 20260509141549 | 50 | 163 | 1.0 | 3.0 | 0.00 | 0.35 | 0.35 | 99 | 1007.1 |
| 20260509141046 | 50 | 215 | 3.0 | 5.0 | 0.00 | 0.35 | 0.35 | 99 | 1007.1 |
| 20260509140543 | 50 | 204 | 2.0 | 3.0 | 0.00 | 0.35 | 0.35 | 99 | 1006.9 |
| 20260509140041 | 50 | 213 | 2.0 | 3.0 | 0.00 | 0.35 | 0.35 | 99 | 1007.2 |
| 20260509135538 | 50 | 176 | 0.0 | 0.0 | 0.00 | 0.35 | 0.35 | 99 | 1007.1 |
| 20260509135036 | 50 | 180 | 1.0 | 3.0 | 0.00 | 0.35 | 0.35 | 99 | 1007.0 |
| 20260509134532 | 50 | 202 | 1.0 | 3.0 | 0.00 | 0.35 | 0.35 | 99 | 1007.2 |
| 20260509134030 | 50 | 196 | 0.0 | 2.0 | 0.00 | 0.35 | 0.35 | 99 | 1007.2 |
| 20260509133526 | 49 | 195 | 0.0 | 2.0 | 0.00 | 0.35 | 0.35 | 99 | 1007.2 |
| 20260509133024 | 49 | 180 | 0.0 | 2.0 | 0.00 | 0.35 | 0.35 | 99 | 1007.2 |
| 20260509132522 | 49 | 178 | 0.0 | 2.0 | 0.00 | 0.35 | 0.35 | 99 | 1007.4 |
| 20260509132020 | 49 | 188 | 0.0 | 2.0 | 0.00 | 0.35 | 0.35 | 99 | 1007.5 |
| 20260509131515 | 49 | 188 | 0.0 | 0.0 | 0.00 | 0.35 | 0.35 | 99 | 1007.4 |
| 20260509131013 | 49 | 186 | 2.0 | 3.0 | 0.00 | 0.35 | 0.35 | 99 | 1007.3 |
| 20260509130508 | 49 | 206 | 1.0 | 3.0 | 0.00 | 0.35 | 0.35 | 99 | 1007.3 |
| 20260509130005 | 49 | 189 | 0.0 | 2.0 | 0.00 | 0.35 | 0.35 | 99 | 1007.4 |
| 20260509125501 | 49 | 183 | 0.0 | 2.0 | 0.00 | 0.35 | 0.35 | 99 | 1007.2 |
| 20260509124957 | 49 | 179 | 0.0 | 2.0 | 0.00 | 0.35 | 0.35 | 99 | 1007.3 |
| 20260509124454 | 49 | 178 | 1.0 | 2.0 | 0.00 | 0.35 | 0.35 | 99 | 1007.3 |
| 20260509123952 | 49 | 190 | 0.0 | 3.0 | 0.00 | 0.35 | 0.35 | 99 | 1007.3 |
| 20260509123449 | 49 | 189 | 0.0 | 0.0 | 0.00 | 0.35 | 0.35 | 99 | 1007.6 |
| 20260509122939 | 48 | 192 | 0.0 | 2.0 | 0.00 | 0.35 | 0.35 | 99 | 1007.4 |
| 20260509122437 | 48 | 164 | 0.0 | 3.0 | 0.00 | 0.35 | 0.35 | 99 | 1007.6 |
| 20260509121933 | 48 | 193 | 2.0 | 3.0 | 0.00 | 0.35 | 0.35 | 99 | 1007.5 |
| 20260509121430 | 48 | 180 | 0.0 | 2.0 | 0.00 | 0.35 | 0.35 | 99 | 1007.6 |
| 20260509120928 | 48 | 179 | 0.0 | 0.0 | 0.00 | 0.35 | 0.35 | 99 | 1007.5 |
| 20260509120426 | 48 | 175 | 0.0 | 0.0 | 0.00 | 0.35 | 0.35 | 99 | 1007.7 |
| 20260509115924 | 48 | 218 | 2.0 | 3.0 | 0.00 | 0.35 | 0.35 | 99 | 1007.5 |
| 20260509115421 | 48 | 171 | 0.0 | 2.0 | 0.00 | 0.35 | 0.35 | 99 | 1007.6 |
| 20260509114918 | 48 | 202 | 0.0 | 2.0 | 0.00 | 0.35 | 0.35 | 99 | 1007.5 |
| 20260509114417 | 48 | 174 | 1.0 | 2.0 | 0.05 | 0.35 | 0.35 | 99 | 1007.4 |
| 20260509113916 | 48 | 183 | 0.0 | 0.0 | 0.05 | 0.35 | 0.35 | 99 | 1007.6 |
| 20260509113413 | 48 | 183 | 0.0 | 2.0 | 0.00 | 0.34 | 0.34 | 99 | 1007.4 |
| 20260509112909 | 48 | 216 | 2.0 | 3.0 | 0.00 | 0.34 | 0.34 | 99 | 1007.4 |
| 20260509112406 | 48 | 183 | 0.0 | 2.0 | 0.00 | 0.34 | 0.34 | 99 | 1007.6 |
| 20260509111903 | 48 | 189 | 2.0 | 3.0 | 0.00 | 0.34 | 0.34 | 99 | 1007.6 |
| 20260509111359 | 48 | 174 | 1.0 | 2.0 | 0.00 | 0.34 | 0.34 | 99 | 1007.4 |
| 20260509110858 | 48 | 185 | 0.0 | 0.0 | 0.00 | 0.34 | 0.34 | 99 | 1007.5 |
| 20260509110353 | 48 | 176 | 0.0 | 2.0 | 0.07 | 0.34 | 0.34 | 99 | 1007.4 |
| 20260509105852 | 48 | 162 | 1.0 | 3.0 | 0.07 | 0.34 | 0.34 | 99 | 1007.5 |
| 20260509105350 | 48 | 175 | 0.0 | 0.0 | 0.00 | 0.33 | 0.33 | 99 | 1007.3 |
| 20260509104846 | 48 | 257 | 0.0 | 2.0 | 0.00 | 0.33 | 0.33 | 99 | 1007.3 |
| 20260509104343 | 48 | 175 | 2.0 | 2.0 | 0.00 | 0.33 | 0.33 | 99 | 1007.3 |
| 20260509103841 | 48 | 173 | 0.0 | 2.0 | 0.00 | 0.33 | 0.33 | 99 | 1007.4 |
| 20260509103338 | 47 | 182 | 1.0 | 2.0 | 0.00 | 0.33 | 0.33 | 99 | 1007.2 |
| 20260509102837 | 47 | 164 | 1.0 | 2.0 | 0.00 | 0.33 | 0.33 | 99 | 1007.4 |
| 20260509102333 | 47 | 174 | 0.0 | 0.0 | 0.00 | 0.33 | 0.33 | 99 | 1007.4 |
| 20260509101829 | 47 | 181 | 0.0 | 2.0 | 0.00 | 0.33 | 0.33 | 99 | 1007.4 |
| 20260509101325 | 47 | 172 | 0.0 | 2.0 | 0.00 | 0.33 | 0.33 | 99 | 1007.4 |
| 20260509100824 | 47 | 163 | 2.0 | 3.0 | 0.00 | 0.33 | 0.33 | 99 | 1007.6 |
| 20260509100320 | 47 | 172 | 0.0 | 0.0 | 0.00 | 0.33 | 0.33 | 99 | 1007.5 |
| 20260509095817 | 47 | 181 | 1.0 | 2.0 | 0.00 | 0.33 | 0.33 | 99 | 1007.6 |
| 20260509095314 | 47 | 182 | 2.0 | 2.0 | 0.05 | 0.33 | 0.33 | 99 | 1007.6 |
| 20260509094811 | 47 | 202 | 0.0 | 2.0 | 0.07 | 0.32 | 0.32 | 99 | 1007.7 |
| 20260509094308 | 47 | 187 | 1.0 | 2.0 | 0.07 | 0.32 | 0.32 | 99 | 1007.5 |
| 20260509093806 | 47 | 173 | 1.0 | 3.0 | 0.05 | 0.31 | 0.31 | 99 | 1007.7 |
| 20260509093303 | 47 | 171 | 0.0 | 2.0 | 0.12 | 0.31 | 0.31 | 99 | 1007.7 |
| 20260509092801 | 47 | 191 | 1.0 | 2.0 | 0.14 | 0.30 | 0.30 | 99 | 1007.9 |
| 20260509092259 | 47 | 170 | 0.0 | 2.0 | 0.07 | 0.29 | 0.29 | 99 | 1007.7 |
| 20260509091757 | 47 | 167 | 0.0 | 2.0 | 0.05 | 0.28 | 0.28 | 99 | 1007.7 |
| 20260509091253 | 47 | 170 | 1.0 | 2.0 | 0.07 | 0.27 | 0.27 | 99 | 1007.8 |
| 20260509090750 | 47 | 166 | 2.0 | 2.0 | 0.12 | 0.27 | 0.27 | 99 | 1007.8 |
| 20260509090247 | 47 | 173 | 1.0 | 3.0 | 0.12 | 0.26 | 0.26 | 99 | 1007.8 |
| 20260509085745 | 47 | 182 | 1.0 | 2.0 | 0.07 | 0.25 | 0.25 | 99 | 1007.9 |
| 20260509085242 | 47 | 174 | 1.0 | 2.0 | 0.05 | 0.24 | 0.24 | 99 | 1007.7 |
| 20260509084738 | 47 | 174 | 0.0 | 2.0 | 0.12 | 0.24 | 0.24 | 99 | 1008.0 |
| 20260509084235 | 47 | 179 | 0.0 | 2.0 | 0.07 | 0.23 | 0.23 | 99 | 1007.9 |
| 20260509083733 | 47 | 171 | 0.0 | 2.0 | 0.05 | 0.22 | 0.22 | 99 | 1008.0 |
| 20260509083230 | 47 | 174 | 1.0 | 2.0 | 0.12 | 0.22 | 0.22 | 99 | 1008.1 |
| 20260509082726 | 47 | 177 | 0.0 | 2.0 | 0.07 | 0.21 | 0.21 | 99 | 1008.0 |
| 20260509082223 | 47 | 172 | 0.0 | 2.0 | 0.05 | 0.20 | 0.20 | 99 | 1007.9 |
| 20260509081720 | 47 | 168 | 0.0 | 0.0 | 0.12 | 0.20 | 0.20 | 99 | 1008.0 |
| 20260509081218 | 47 | 168 | 0.0 | 0.0 | 0.07 | 0.19 | 0.19 | 99 | 1008.0 |
| 20260509080716 | 47 | 168 | 0.0 | 0.0 | 0.14 | 0.19 | 0.19 | 99 | 1008.0 |
| 20260509080213 | 47 | 168 | 0.0 | 0.0 | 0.12 | 0.18 | 0.18 | 99 | 1008.0 |
| 20260509075711 | 47 | 168 | 0.0 | 0.0 | 0.05 | 0.17 | 0.17 | 99 | 1008.0 |
| 20260509075208 | 47 | 166 | 0.0 | 0.0 | 0.07 | 0.16 | 0.16 | 99 | 1008.2 |
| 20260509074705 | 47 | 168 | 0.0 | 0.0 | 0.07 | 0.16 | 0.16 | 99 | 1008.0 |
| 20260509074202 | 47 | 168 | 0.0 | 2.0 | 0.00 | 0.15 | 0.15 | 99 | 1007.9 |
| 20260509073659 | 47 | 165 | 0.0 | 0.0 | 0.00 | 0.15 | 0.15 | 99 | 1007.8 |
| 20260509073155 | 47 | 167 | 0.0 | 2.0 | 0.00 | 0.15 | 0.15 | 99 | 1007.9 |
| 20260509072652 | 47 | 167 | 0.0 | 2.0 | 0.05 | 0.15 | 0.15 | 99 | 1007.8 |
| 20260509072148 | 47 | 167 | 1.0 | 2.0 | 0.12 | 0.15 | 0.15 | 99 | 1008.0 |
| 20260509071645 | 47 | 166 | 0.0 | 2.0 | 0.07 | 0.14 | 0.14 | 99 | 1007.9 |
| 20260509071142 | 47 | 166 | 0.0 | 2.0 | 0.05 | 0.13 | 0.13 | 99 | 1008.1 |
| 20260509070639 | 47 | 172 | 0.0 | 0.0 | 0.07 | 0.12 | 0.12 | 99 | 1008.2 |
| 20260509070136 | 47 | 171 | 0.0 | 2.0 | 0.00 | 0.11 | 0.11 | 99 | 1008.2 |
| 20260509065631 | 47 | 172 | 0.0 | 2.0 | 0.00 | 0.11 | 0.11 | 99 | 1008.1 |
| 20260509065128 | 47 | 172 | 0.0 | 2.0 | 0.00 | 0.11 | 0.11 | 99 | 1008.4 |
| 20260509064625 | 47 | 171 | 1.0 | 2.0 | 0.05 | 0.11 | 0.11 | 99 | 1008.2 |
| 20260509064123 | 47 | 172 | 0.0 | 0.0 | 0.05 | 0.11 | 0.11 | 99 | 1008.3 |
| 20260509063619 | 47 | 172 | 0.0 | 0.0 | 0.07 | 0.10 | 0.10 | 99 | 1008.2 |
| 20260509063116 | 47 | 182 | 0.0 | 2.0 | 0.00 | 0.09 | 0.09 | 99 | 1008.4 |
| 20260509062613 | 47 | 167 | 0.0 | 0.0 | 0.05 | 0.09 | 0.09 | 99 | 1008.6 |
| 20260509062110 | 47 | 167 | 0.0 | 0.0 | 0.05 | 0.09 | 0.09 | 99 | 1008.5 |
| 20260509061607 | 47 | 167 | 0.0 | 0.0 | 0.00 | 0.08 | 0.08 | 99 | 1008.6 |
| 20260509061104 | 47 | 167 | 0.0 | 2.0 | 0.00 | 0.08 | 0.08 | 99 | 1008.7 |
| 20260509060602 | 47 | 175 | 1.0 | 2.0 | 0.00 | 0.08 | 0.08 | 99 | 1008.9 |
| 20260509060058 | 47 | 171 | 0.0 | 0.0 | 0.00 | 0.08 | 0.08 | 99 | 1009.0 |
| 20260509055553 | 47 | 171 | 0.0 | 2.0 | 0.00 | 0.08 | 0.08 | 99 | 1009.3 |
| 20260509055049 | 47 | 171 | 0.0 | 0.0 | 0.00 | 0.08 | 0.08 | 99 | 1009.0 |
| 20260509054546 | 47 | 171 | 0.0 | 0.0 | 0.00 | 0.08 | 0.08 | 99 | 1009.2 |
| 20260509054044 | 47 | 171 | 0.0 | 0.0 | 0.00 | 0.08 | 0.08 | 99 | 1009.1 |
| 20260509053543 | 47 | 171 | 0.0 | 0.0 | 0.00 | 0.08 | 0.08 | 99 | 1009.1 |
| 20260509053039 | 47 | 171 | 0.0 | 0.0 | 0.00 | 0.08 | 0.08 | 99 | 1009.3 |
| 20260509052537 | 47 | 171 | 0.0 | 0.0 | 0.00 | 0.08 | 0.08 | 99 | 1009.3 |
| 20260509052035 | 47 | 171 | 0.0 | 0.0 | 0.00 | 0.08 | 0.08 | 99 | 1009.3 |
| 20260509051533 | 47 | 171 | 0.0 | 0.0 | 0.07 | 0.08 | 0.08 | 99 | 1009.3 |
| 20260509051029 | 47 | 171 | 0.0 | 2.0 | 0.07 | 0.08 | 0.08 | 99 | 1009.4 |
| 20260509050526 | 47 | 171 | 2.0 | 3.0 | 0.00 | 0.07 | 0.07 | 99 | 1009.4 |
| 20260509050022 | 47 | 165 | 0.0 | 0.0 | 0.12 | 0.07 | 0.07 | 99 | 1009.4 |
| 20260509045520 | 47 | 183 | 1.0 | 2.0 | 0.12 | 0.07 | 0.07 | 99 | 1009.7 |
| 20260509045017 | 47 | 151 | 1.0 | 2.0 | 0.07 | 0.05 | 0.05 | 99 | 1009.7 |
| 20260509044515 | 47 | 178 | 0.0 | 0.0 | 0.07 | 0.05 | 0.05 | 99 | 1010.0 |
| 20260509044012 | 47 | 177 | 0.0 | 2.0 | 0.12 | 0.04 | 0.04 | 99 | 1010.1 |
| 20260509043508 | 47 | 198 | 1.0 | 2.0 | 0.17 | 0.04 | 0.04 | 99 | 1010.0 |
| 20260509043004 | 47 | 174 | 0.0 | 0.0 | 0.05 | 0.02 | 0.02 | 99 | 1010.1 |
| 20260509042500 | 47 | 173 | 1.0 | 2.0 | 0.00 | 0.01 | 0.01 | 99 | 1010.1 |
| 20260509041956 | 47 | 168 | 1.0 | 2.0 | 0.00 | 0.01 | 0.01 | 99 | 1010.0 |
| 20260509041453 | 47 | 169 | 0.0 | 2.0 | 0.07 | 0.01 | 0.01 | 99 | 1010.1 |
| 20260509040951 | 47 | 165 | 0.0 | 2.0 | 0.00 | 0.00 | 0.00 | 99 | 1010.1 |
| 20260509040449 | 47 | 174 | 1.0 | 2.0 | 0.00 | 0.00 | 0.00 | 99 | 1010.2 |
| 20260509035945 | 47 | 169 | 1.0 | 2.0 | 0.00 | 0.52 | 0.52 | 99 | 1010.0 |
| 20260509035442 | 47 | 181 | 0.0 | 3.0 | 0.00 | 0.52 | 0.52 | 99 | 1010.1 |
| 20260509034939 | 47 | 184 | 0.0 | 2.0 | 0.00 | 0.52 | 0.52 | 99 | 1010.3 |
| 20260509034437 | 47 | 161 | 2.0 | 2.0 | 0.00 | 0.52 | 0.52 | 99 | 1010.2 |
| 20260509033934 | 47 | 181 | 0.0 | 0.0 | 0.00 | 0.52 | 0.52 | 99 | 1010.4 |
| 20260509033431 | 47 | 181 | 0.0 | 0.0 | 0.05 | 0.52 | 0.52 | 99 | 1010.4 |
| 20260509032927 | 47 | 181 | 0.0 | 0.0 | 0.05 | 0.52 | 0.52 | 99 | 1010.5 |
| 20260509032425 | 47 | 181 | 0.0 | 0.0 | 0.00 | 0.51 | 0.51 | 99 | 1010.6 |
| 20260509031922 | 47 | 181 | 0.0 | 0.0 | 0.07 | 0.51 | 0.51 | 99 | 1010.6 |
| 20260509031420 | 47 | 181 | 0.0 | 0.0 | 0.07 | 0.51 | 0.51 | 99 | 1010.6 |
| 20260509030917 | 47 | 181 | 0.0 | 0.0 | 0.00 | 0.50 | 0.50 | 99 | 1010.7 |
| 20260509030415 | 47 | 181 | 0.0 | 0.0 | 0.05 | 0.50 | 0.50 | 99 | 1010.5 |
| 20260509025912 | 47 | 181 | 0.0 | 0.0 | 0.05 | 0.50 | 0.50 | 99 | 1010.5 |
| 20260509025407 | 47 | 181 | 0.0 | 0.0 | 0.07 | 0.49 | 0.49 | 99 | 1010.5 |
| 20260509024902 | 47 | 181 | 0.0 | 0.0 | 0.12 | 0.49 | 0.49 | 99 | 1010.7 |
| 20260509024359 | 47 | 182 | 0.0 | 0.0 | 0.05 | 0.48 | 0.48 | 99 | 1010.7 |
| 20260509023856 | 47 | 182 | 0.0 | 0.0 | 0.07 | 0.47 | 0.47 | 99 | 1010.8 |
| 20260509023353 | 47 | 182 | 0.0 | 0.0 | 0.07 | 0.47 | 0.47 | 99 | 1010.9 |
| 20260509022849 | 47 | 182 | 0.0 | 0.0 | 0.05 | 0.46 | 0.46 | 99 | 1011.0 |
| 20260509022347 | 47 | 182 | 0.0 | 0.0 | 0.05 | 0.46 | 0.46 | 99 | 1010.8 |
| 20260509021844 | 47 | 183 | 0.0 | 0.0 | 0.07 | 0.45 | 0.45 | 99 | 1010.9 |
| 20260509021341 | 47 | 183 | 0.0 | 0.0 | 0.07 | 0.45 | 0.45 | 99 | 1010.8 |
| 20260509020839 | 47 | 185 | 0.0 | 2.0 | 0.07 | 0.44 | 0.44 | 99 | 1011.1 |
| 20260509020337 | 47 | 176 | 0.0 | 0.0 | 0.07 | 0.44 | 0.44 | 99 | 1011.0 |
| 20260509015829 | 47 | 187 | 2.0 | 2.0 | 0.05 | 0.43 | 0.43 | 99 | 1011.2 |
| 20260509015326 | 47 | 181 | 0.0 | 0.0 | 0.12 | 0.43 | 0.43 | 99 | 1011.0 |
| 20260509014822 | 47 | 174 | 0.0 | 0.0 | 0.07 | 0.42 | 0.42 | 99 | 1010.8 |
| 20260509014319 | 47 | 174 | 0.0 | 0.0 | 0.00 | 0.41 | 0.41 | 99 | 1010.6 |
| 20260509013816 | 47 | 174 | 0.0 | 0.0 | 0.05 | 0.41 | 0.41 | 99 | 1010.8 |
| 20260509013312 | 47 | 174 | 0.0 | 0.0 | 0.12 | 0.41 | 0.41 | 99 | 1010.7 |
| 20260509012808 | 47 | 174 | 0.0 | 0.0 | 0.12 | 0.40 | 0.40 | 99 | 1010.6 |
| 20260509012307 | 47 | 168 | 0.0 | 0.0 | 0.12 | 0.39 | 0.39 | 99 | 1010.6 |
| 20260509011802 | 47 | 168 | 0.0 | 0.0 | 0.12 | 0.38 | 0.38 | 98 | 1010.6 |
| 20260509011255 | 47 | 173 | 0.0 | 0.0 | 0.12 | 0.37 | 0.37 | 98 | 1010.6 |
| 20260509010752 | 47 | 169 | 0.0 | 0.0 | 0.12 | 0.36 | 0.36 | 98 | 1010.4 |
| 20260509010249 | 47 | 177 | 0.0 | 0.0 | 0.12 | 0.35 | 0.35 | 98 | 1010.3 |
| 20260509005746 | 47 | 177 | 0.0 | 0.0 | 0.12 | 0.34 | 0.34 | 98 | 1010.2 |
| 20260509005244 | 47 | 177 | 0.0 | 0.0 | 0.12 | 0.33 | 0.33 | 98 | 1010.3 |
| 20260509004743 | 47 | 177 | 0.0 | 0.0 | 0.14 | 0.32 | 0.32 | 98 | 1010.1 |
| 20260509004240 | 47 | 178 | 0.0 | 0.0 | 0.07 | 0.31 | 0.31 | 98 | 1010.1 |
| 20260509003738 | 47 | 178 | 0.0 | 0.0 | 0.05 | 0.30 | 0.30 | 98 | 1010.1 |
| 20260509003236 | 47 | 179 | 0.0 | 0.0 | 0.12 | 0.30 | 0.30 | 98 | 1010.1 |
| 20260509002733 | 47 | 176 | 0.0 | 0.0 | 0.12 | 0.29 | 0.29 | 98 | 1010.2 |
| 20260509002231 | 47 | 174 | 0.0 | 0.0 | 0.05 | 0.28 | 0.28 | 97 | 1009.9 |
| 20260509001728 | 47 | 174 | 0.0 | 0.0 | 0.07 | 0.27 | 0.27 | 97 | 1009.9 |
| 20260509001224 | 47 | 158 | 0.0 | 0.0 | 0.12 | 0.27 | 0.27 | 97 | 1010.0 |
| 20260509000722 | 47 | 158 | 0.0 | 0.0 | 0.12 | 0.26 | 0.26 | 97 | 1010.0 |
| 20260509000219 | 47 | 158 | 0.0 | 0.0 | 0.12 | 0.25 | 0.25 | 96 | 1010.1 |
| 20260508235716 | 47 | 158 | 0.0 | 0.0 | 0.12 | 0.24 | 0.24 | 96 | 1010.3 |
| 20260508235212 | 48 | 158 | 0.0 | 0.0 | 0.12 | 0.23 | 0.23 | 96 | 1010.3 |
| 20260508234705 | 48 | 157 | 0.0 | 0.0 | 0.14 | 0.21 | 0.21 | 95 | 1010.2 |
| 20260508234200 | 48 | 168 | 0.0 | 0.0 | 0.12 | 0.20 | 0.20 | 95 | 1010.3 |
| 20260508233659 | 48 | 168 | 0.0 | 0.0 | 0.17 | 0.19 | 0.19 | 94 | 1010.4 |
| 20260508233157 | 48 | 168 | 0.0 | 0.0 | 0.12 | 0.17 | 0.17 | 93 | 1010.2 |
| 20260508232654 | 48 | 169 | 0.0 | 0.0 | 0.12 | 0.16 | 0.16 | 92 | 1010.0 |
| 20260508232150 | 48 | 170 | 0.0 | 0.0 | 0.05 | 0.15 | 0.15 | 91 | 1009.9 |
| 20260508231649 | 49 | 169 | 0.0 | 2.0 | 0.07 | 0.14 | 0.14 | 89 | 1009.9 |
| 20260508231145 | 50 | 161 | 0.0 | 2.0 | 0.12 | 0.14 | 0.14 | 85 | 1009.7 |
| 20260508230642 | 50 | 180 | 0.0 | 2.0 | 0.05 | 0.13 | 0.13 | 83 | 1009.9 |
| 20260508230138 | 51 | 196 | 2.0 | 3.0 | 0.00 | 0.12 | 0.12 | 79 | 1010.0 |
| 20260508225636 | 51 | 170 | 2.0 | 3.0 | 0.00 | 0.12 | 0.12 | 77 | 1009.7 |
| 20260508225132 | 51 | 157 | 0.0 | 0.0 | 0.00 | 0.12 | 0.12 | 76 | 1009.6 |
| 20260508224630 | 51 | 206 | 1.0 | 8.0 | 0.00 | 0.12 | 0.12 | 75 | 1009.8 |